Beverly, Kansas
Current Conditions -  °F | °C
As of 4:53 PM on Wednesday 22 Oct 2014 (Local Time) from KSLN Reporting Station
Few Clouds Few Clouds  
Wind Chill: 75°   Ceiling: Unl
Heat Index: 75°   Visibility: 10mi
Dew Point: 52°   Wind: 15mph
Humidity: 44%   Direction: 180°S
Pressure: 30.01"   Gusts: 21mph
Location:  39.01°N, 97.98°W
Report Text: KSLN 222153Z 18013G18KT 10SM FEW120 24/11 A3001 RMK AO2 SLP154 T02390111
Loading
Personal Weather Stations






























Interactive Weather Map
Tropical Storm Tracking
New forecast layout! Learn more

10-Day Weather Forecast

Advertisements
Track Severe Weather on mobile